15:07
Airports
History
Links
Donate
Help keep this website running!
PayPal
Bitcoin
This page is community maintained. The information is intended for PC simulator navigation or reference.
Always use approved charts for navigation.
RPVI
Iloilo
Iloilo (RPVI)
Iloilo City, Western Visayas, Philippines
(C)
Lat/Lng:10° 42' 46.97" N / 122° 32' 43.07" E
10.713046 / 122.545298
Elevation:27'ft / 8mMSL
ID / ICAO:RPVI
Runways:1
Longest:02-20
Asphalt 2,108m / 6,917ft
Controlled:Yes
METAR08:00 GMT 2016-05-09
Altimeter: 29.77
Visibility: 6.2 statute miles
Wind: 12 knots (from 320°)
Temp: 33°c / 91°f
Humidity: 66.8%

METAR: RPVI 090800Z 32012KT 9999 TS FEW018CB FEW019 33/26 Q1008 RMK A2977 CB SSE

(Powered by phpweather)
Airport Radio Frequencies
Tower: 123.4
Approach: 121
Nearby VORs <50NM
Nearby NDBs
Runway 02 / 20
Dimensions:2108.2 x 36m 6917' x 118'ft
Surface:Asphalt
Runway 02 [A]Runway 20 [B]
Heading:023°TH 203°TH
Lat:
Lng:
10° 42' 15.65"N
122° 32' 29.23"E
10° 43' 18.28"N
122° 32' 56.91"E
ALS:SSALF
User Notes and Comments
10° 42' 46.97" N / 122° 32' 43.07" E
Distance To
Airport ID:
Nearby Airports
(C) Bacolod 26.5 NM
RPVB E 100°
(U) ANTIQUE 41.7 NM
RPVS W 275°
(C) ROXAS 62.7 NM
RPVR NNE 12°
(C) KALIBO 67.7 NM
RPVK N 350°
(C) CATICLAN 92.8 NM
RPVE NNW 334°
(C) MACTAN CEBU INTL 101.4 NM
RPVM ( WX ) ESE 106°
(C) DUMAGUETE 108.3 NM
RPVD ( WX ) SSE 151°
VFR Chart
Flight Planning at SkyVector.com